createdAt,value
2023-12-11T00:01:35.258Z,7.95
2023-12-11T00:04:02.187Z,8.15
2023-12-11T00:06:28.751Z,8.16
2023-12-11T00:08:55.323Z,8.32
2023-12-11T00:11:22.382Z,8.36
2023-12-11T00:13:48.865Z,8.12
2023-12-11T00:16:18.498Z,8.05
2023-12-11T00:18:45.364Z,7.89
2023-12-11T00:21:12.014Z,7.79
2023-12-11T00:23:38.736Z,7.85
2023-12-11T00:26:05.198Z,7.86
2023-12-11T00:28:31.712Z,7.69
2023-12-11T00:30:58.401Z,7.88
2023-12-11T00:33:24.947Z,7.73
2023-12-11T00:35:51.537Z,7.87
2023-12-11T00:38:18.066Z,7.91
2023-12-11T00:40:46.540Z,8.00
2023-12-11T00:43:13.295Z,8.12
2023-12-11T00:45:39.921Z,8.15
2023-12-11T00:48:06.762Z,8.24
2023-12-11T00:50:35.103Z,8.22
2023-12-11T00:53:01.640Z,8.29
2023-12-11T00:55:28.062Z,8.41
2023-12-11T00:57:54.631Z,8.46
2023-12-11T01:00:21.491Z,8.51
2023-12-11T01:02:48.174Z,8.55
2023-12-11T01:05:14.848Z,8.66
2023-12-11T01:07:41.286Z,8.64
2023-12-11T01:10:09.105Z,8.71
2023-12-11T01:12:36.994Z,8.71
2023-12-11T01:15:03.770Z,8.64
2023-12-11T01:17:38.677Z,8.74
2023-12-11T01:20:07.980Z,8.68
2023-12-11T01:22:34.490Z,8.67
2023-12-11T01:25:03.505Z,8.71
2023-12-11T01:27:30.480Z,8.76
2023-12-11T01:29:57.229Z,8.74
2023-12-11T01:32:23.685Z,8.84
2023-12-11T01:34:50.157Z,8.84
2023-12-11T01:37:17.648Z,8.86
2023-12-11T01:39:44.119Z,8.86
2023-12-11T01:42:10.581Z,8.86
2023-12-11T01:44:37.259Z,8.83
2023-12-11T01:47:03.946Z,8.82
2023-12-11T01:49:30.614Z,8.69
2023-12-11T01:51:57.145Z,8.75
2023-12-11T01:54:23.735Z,8.78
2023-12-11T01:56:50.203Z,8.77
2023-12-11T01:59:16.956Z,8.82
2023-12-11T02:01:44.950Z,8.86
2023-12-11T02:04:11.655Z,8.80
2023-12-11T02:06:38.272Z,8.76
2023-12-11T02:09:05.119Z,8.75
2023-12-11T02:11:31.741Z,8.73
2023-12-11T02:13:58.184Z,8.73
2023-12-11T02:16:24.662Z,8.82
2023-12-11T02:18:51.263Z,8.82
2023-12-11T02:21:18.187Z,8.79
2023-12-11T02:23:57.087Z,8.80
2023-12-11T02:26:23.876Z,8.71
2023-12-11T02:28:50.302Z,8.83
2023-12-11T02:31:16.835Z,8.86
2023-12-11T02:33:43.495Z,8.86
2023-12-11T02:36:10.036Z,8.89
2023-12-11T02:38:36.496Z,8.89
2023-12-11T02:41:03.221Z,8.81
2023-12-11T02:43:29.658Z,8.73
2023-12-11T02:45:56.219Z,8.71
2023-12-11T02:48:22.831Z,8.70
2023-12-11T02:50:49.400Z,8.72
2023-12-11T02:53:15.894Z,8.73
2023-12-11T02:55:42.802Z,8.72
2023-12-11T02:58:09.493Z,8.65
2023-12-11T03:00:37.133Z,8.62
2023-12-11T03:03:04.685Z,8.71
2023-12-11T03:05:31.161Z,8.70
2023-12-11T03:07:57.576Z,8.69
2023-12-11T03:10:30.435Z,8.69
2023-12-11T03:12:56.947Z,8.64
2023-12-11T03:15:23.466Z,8.65
2023-12-11T03:17:49.958Z,8.63
2023-12-11T03:20:16.618Z,8.66
2023-12-11T03:22:43.262Z,8.59
2023-12-11T03:25:09.896Z,8.64
2023-12-11T03:27:36.522Z,8.61
2023-12-11T03:30:03.856Z,8.55
2023-12-11T03:32:31.070Z,8.64
2023-12-11T03:34:57.791Z,8.64
2023-12-11T03:37:24.612Z,8.61
2023-12-11T03:39:51.209Z,8.57
2023-12-11T03:42:17.692Z,8.59
2023-12-11T03:44:44.243Z,8.58
2023-12-11T03:47:10.744Z,8.64
2023-12-11T03:49:37.353Z,8.56
2023-12-11T03:52:04.245Z,8.50
2023-12-11T03:54:30.878Z,8.49
2023-12-11T03:56:57.538Z,8.42
2023-12-11T03:59:24.238Z,8.40
2023-12-11T04:01:50.840Z,8.49
2023-12-11T04:04:17.419Z,8.55
2023-12-11T04:06:44.019Z,8.57
2023-12-11T04:09:10.474Z,8.57
2023-12-11T04:11:37.218Z,8.55
2023-12-11T04:14:03.820Z,8.58
2023-12-11T04:16:30.575Z,8.61
2023-12-11T04:19:00.332Z,8.65
2023-12-11T04:21:27.507Z,8.60
2023-12-11T04:23:56.155Z,8.61
2023-12-11T04:26:22.604Z,8.61
2023-12-11T04:28:49.040Z,8.66
2023-12-11T04:31:15.508Z,8.63
2023-12-11T04:33:42.213Z,8.70
2023-12-11T04:36:09.710Z,8.71
2023-12-11T04:38:36.365Z,8.74
2023-12-11T04:41:03.737Z,8.76
2023-12-11T04:43:31.827Z,8.67
2023-12-11T04:45:58.794Z,8.59
2023-12-11T04:48:25.388Z,8.58
2023-12-11T04:50:51.968Z,8.62
2023-12-11T04:53:18.440Z,8.60
2023-12-11T04:55:45.177Z,8.64
2023-12-11T04:58:11.710Z,8.63
2023-12-11T05:00:38.446Z,8.69
2023-12-11T05:03:04.995Z,8.65
2023-12-11T05:05:31.582Z,8.61
2023-12-11T05:07:58.251Z,8.60
2023-12-11T05:10:24.669Z,8.60
2023-12-11T05:12:51.114Z,8.64
2023-12-11T05:15:17.589Z,8.61
2023-12-11T05:17:44.347Z,8.60
2023-12-11T05:20:13.804Z,8.68
2023-12-11T05:22:40.271Z,8.74
2023-12-11T05:25:07.467Z,8.78
2023-12-11T05:27:34.275Z,8.83
2023-12-11T05:30:00.827Z,8.83
2023-12-11T05:32:27.621Z,8.89
2023-12-11T05:34:54.234Z,8.94
2023-12-11T05:37:21.357Z,8.93
2023-12-11T05:39:57.454Z,8.80
2023-12-11T05:42:34.170Z,8.75
2023-12-11T05:45:00.646Z,8.72
2023-12-11T05:47:27.165Z,8.73
2023-12-11T05:49:53.828Z,8.72
2023-12-11T05:52:20.401Z,8.65
2023-12-11T05:54:46.880Z,8.77
2023-12-11T05:57:13.320Z,8.82
2023-12-11T05:59:39.851Z,8.85
2023-12-11T06:02:06.250Z,8.84
2023-12-11T06:04:33.909Z,8.86
2023-12-11T06:07:00.426Z,8.88
2023-12-11T06:09:26.851Z,8.91
2023-12-11T06:11:53.318Z,8.96
2023-12-11T06:14:19.772Z,8.99
2023-12-11T06:16:46.219Z,9.06
2023-12-11T06:19:12.728Z,9.05
2023-12-11T06:21:41.886Z,9.06
2023-12-11T06:24:08.470Z,9.13
2023-12-11T06:26:37.868Z,9.14
2023-12-11T06:29:04.295Z,9.18
2023-12-11T06:31:31.513Z,9.11
2023-12-11T06:33:58.314Z,9.06
2023-12-11T06:36:26.638Z,9.07
2023-12-11T06:38:53.052Z,9.06
2023-12-11T06:41:19.756Z,9.06
2023-12-11T06:43:53.500Z,9.13
2023-12-11T06:46:20.355Z,9.07
2023-12-11T06:48:46.917Z,8.95
2023-12-11T06:51:16.496Z,8.80
2023-12-11T06:53:43.071Z,8.63
2023-12-11T06:56:09.945Z,8.69
2023-12-11T06:58:36.428Z,8.61
2023-12-11T07:01:03.133Z,8.56
2023-12-11T07:03:29.678Z,8.50
2023-12-11T07:05:56.370Z,8.45
2023-12-11T07:08:22.836Z,8.43
2023-12-11T07:10:49.269Z,8.43
2023-12-11T07:13:15.805Z,8.36
2023-12-11T07:15:42.433Z,8.39
2023-12-11T07:18:11.678Z,8.42
2023-12-11T07:20:38.593Z,8.45
2023-12-11T07:23:06.893Z,8.47
2023-12-11T07:25:33.390Z,8.53
2023-12-11T07:27:59.922Z,8.52
2023-12-11T07:30:27.206Z,8.57
2023-12-11T07:32:53.754Z,8.58
2023-12-11T07:35:20.189Z,8.50
2023-12-11T07:37:46.592Z,8.52
2023-12-11T07:40:13.176Z,8.47
2023-12-11T07:42:39.688Z,8.55
2023-12-11T07:45:06.741Z,8.59
2023-12-11T07:47:33.837Z,8.44
2023-12-11T07:50:04.496Z,8.47
2023-12-11T07:52:31.706Z,8.51
2023-12-11T07:55:01.264Z,8.58
2023-12-11T07:57:30.134Z,8.61
2023-12-11T07:59:56.792Z,8.59
2023-12-11T08:02:23.284Z,8.72
2023-12-11T08:04:49.893Z,8.73
2023-12-11T08:07:17.167Z,8.74
2023-12-11T08:09:44.027Z,8.76
2023-12-11T08:12:10.869Z,8.79
2023-12-11T08:14:39.622Z,8.78
2023-12-11T08:17:07.328Z,8.88
2023-12-11T08:19:36.890Z,8.99
2023-12-11T08:22:04.486Z,8.96
2023-12-11T08:24:31.149Z,9.01
2023-12-11T08:26:57.667Z,9.01
2023-12-11T08:29:24.292Z,9.03
2023-12-11T08:31:50.958Z,9.06
2023-12-11T08:34:19.960Z,9.06
2023-12-11T08:36:46.525Z,9.07
2023-12-11T08:39:13.417Z,9.11
2023-12-11T08:41:39.833Z,9.14
2023-12-11T08:44:07.012Z,9.17
2023-12-11T08:46:33.494Z,9.09
2023-12-11T08:49:00.164Z,9.08
2023-12-11T08:51:26.806Z,9.17
2023-12-11T08:53:53.288Z,9.21
2023-12-11T08:56:21.073Z,9.31
2023-12-11T08:58:47.818Z,9.30
2023-12-11T09:01:14.737Z,9.43
2023-12-11T09:03:41.419Z,9.41
2023-12-11T09:06:08.282Z,9.43
2023-12-11T09:08:34.788Z,9.44
2023-12-11T09:11:01.208Z,9.46
2023-12-11T09:13:29.607Z,9.45
2023-12-11T09:15:56.907Z,9.41
2023-12-11T09:18:23.732Z,9.46
2023-12-11T09:20:50.644Z,9.49
2023-12-11T09:23:17.214Z,9.52
2023-12-11T09:25:44.430Z,9.58
2023-12-11T09:28:11.086Z,9.53
2023-12-11T09:30:37.688Z,9.49
2023-12-11T09:33:04.217Z,9.60
2023-12-11T09:35:30.884Z,9.61
2023-12-11T09:37:57.395Z,9.59
2023-12-11T09:40:23.839Z,9.65
2023-12-11T09:42:51.965Z,9.62
2023-12-11T09:45:20.818Z,9.65
2023-12-11T09:48:00.169Z,9.69
2023-12-11T09:50:37.885Z,9.73
2023-12-11T09:53:04.677Z,9.70
2023-12-11T09:55:31.131Z,9.72
2023-12-11T09:57:58.117Z,9.69
2023-12-11T10:00:25.356Z,9.69
2023-12-11T10:02:53.105Z,9.77
2023-12-11T10:05:26.827Z,9.80
2023-12-11T10:07:53.552Z,9.87
2023-12-11T10:10:28.973Z,9.89
2023-12-11T10:12:56.415Z,9.95
2023-12-11T10:15:32.168Z,9.95
2023-12-11T10:18:10.915Z,9.98
2023-12-11T10:20:39.412Z,9.99
2023-12-11T10:23:19.579Z,10.01
2023-12-11T10:25:48.835Z,9.99
2023-12-11T10:28:17.981Z,10.02
2023-12-11T10:30:55.682Z,10.07
2023-12-11T10:33:24.915Z,10.11
2023-12-11T10:35:52.124Z,10.10
2023-12-11T10:38:26.922Z,10.06
2023-12-11T10:40:54.844Z,10.06
2023-12-11T10:43:21.695Z,10.05
2023-12-11T10:45:51.426Z,10.03
2023-12-11T10:48:20.744Z,9.98
2023-12-11T10:50:48.390Z,9.94
2023-12-11T10:53:16.464Z,9.97
2023-12-11T10:55:44.172Z,9.95
2023-12-11T10:58:10.879Z,10.01
2023-12-11T11:00:39.368Z,9.98
2023-12-11T11:03:09.804Z,9.97
2023-12-11T11:05:36.522Z,9.99
2023-12-11T11:08:08.977Z,10.00
2023-12-11T11:10:55.701Z,10.00
2023-12-11T11:13:27.967Z,10.05
2023-12-11T11:15:55.340Z,10.03
2023-12-11T11:18:22.024Z,10.07
2023-12-11T11:21:11.540Z,10.04
2023-12-11T11:23:46.835Z,10.04
2023-12-11T11:26:36.431Z,10.02
2023-12-11T11:29:04.956Z,9.97
2023-12-11T11:31:51.823Z,10.04
2023-12-11T11:34:43.614Z,10.02
2023-12-11T11:37:19.071Z,10.06
2023-12-11T11:39:59.141Z,10.03
2023-12-11T11:42:32.589Z,10.08
2023-12-11T11:45:04.356Z,10.04
2023-12-11T11:47:32.549Z,10.00
2023-12-11T11:50:17.294Z,9.97
2023-12-11T11:52:44.960Z,9.91
2023-12-11T11:55:18.174Z,9.89
2023-12-11T11:57:44.726Z,9.96
2023-12-11T12:00:11.532Z,9.92
2023-12-11T12:02:37.965Z,10.00
2023-12-11T12:05:11.169Z,9.97
2023-12-11T12:07:42.194Z,10.01
2023-12-11T12:10:12.633Z,9.95
2023-12-11T12:12:39.538Z,9.92
2023-12-11T12:15:08.934Z,9.96
2023-12-11T12:17:36.678Z,9.95
2023-12-11T12:20:20.253Z,9.88
2023-12-11T12:22:57.812Z,9.99
2023-12-11T12:25:24.379Z,9.98
2023-12-11T12:27:54.277Z,9.96
2023-12-11T12:30:21.495Z,10.02
2023-12-11T12:32:50.879Z,10.03
2023-12-11T12:35:19.427Z,10.00
2023-12-11T12:37:47.396Z,10.07
2023-12-11T12:40:14.434Z,10.05
2023-12-11T12:42:41.180Z,9.95
2023-12-11T12:45:08.509Z,10.07
2023-12-11T12:47:44.858Z,10.03
2023-12-11T12:50:23.498Z,10.07
2023-12-11T12:52:50.067Z,10.08
2023-12-11T12:55:16.742Z,9.97
2023-12-11T12:57:44.800Z,9.97
2023-12-11T13:00:21.641Z,9.97
2023-12-11T13:02:49.664Z,10.00
2023-12-11T13:07:57.790Z,10.00
2023-12-11T13:10:24.490Z,9.95
2023-12-11T13:12:51.246Z,9.95
2023-12-11T13:15:18.324Z,9.92
2023-12-11T13:17:51.327Z,9.96
2023-12-11T13:20:20.914Z,10.09
2023-12-11T13:22:49.185Z,10.12
2023-12-11T13:25:19.081Z,10.08
2023-12-11T13:27:47.974Z,10.08
2023-12-11T13:30:20.354Z,10.07
2023-12-11T13:32:47.598Z,10.10
2023-12-11T13:35:14.166Z,10.06
2023-12-11T13:37:40.797Z,10.01
2023-12-11T13:40:08.168Z,9.83
2023-12-11T13:42:35.391Z,9.74
2023-12-11T13:45:01.906Z,9.62
2023-12-11T13:47:29.700Z,9.63
2023-12-11T13:49:56.887Z,9.51
2023-12-11T13:52:23.544Z,9.47
2023-12-11T13:54:51.473Z,9.45
2023-12-11T13:57:21.377Z,9.25
2023-12-11T13:59:50.214Z,9.14
2023-12-11T14:02:17.726Z,9.14
2023-12-11T14:05:05.231Z,9.04
2023-12-11T14:07:32.406Z,8.98
2023-12-11T14:10:00.652Z,8.84
2023-12-11T14:12:27.237Z,8.79
2023-12-11T14:14:53.896Z,8.79
2023-12-11T14:17:20.577Z,8.75
2023-12-11T14:19:49.692Z,8.58
2023-12-11T14:22:17.195Z,8.57
2023-12-11T14:24:45.227Z,8.60
2023-12-11T14:27:12.276Z,8.57
2023-12-11T14:29:38.935Z,8.52
2023-12-11T14:32:05.574Z,8.55
2023-12-11T14:34:32.194Z,8.43
2023-12-11T14:36:58.836Z,8.41
2023-12-11T14:39:25.430Z,8.30
2023-12-11T14:41:51.905Z,8.38
2023-12-11T14:44:19.296Z,8.30
2023-12-11T14:46:45.754Z,8.29
2023-12-11T14:49:12.790Z,8.28
2023-12-11T14:51:40.821Z,8.23
2023-12-11T14:54:08.541Z,8.12
2023-12-11T14:56:35.889Z,8.16
2023-12-11T14:59:02.444Z,8.09
2023-12-11T15:01:28.988Z,8.05
2023-12-11T15:03:55.877Z,8.02
2023-12-11T15:06:23.253Z,7.99
2023-12-11T15:08:50.833Z,7.99
2023-12-11T15:11:18.256Z,7.95
2023-12-11T15:13:45.111Z,7.93
2023-12-11T15:16:12.605Z,7.93
2023-12-11T15:18:42.322Z,7.88
2023-12-11T15:21:14.838Z,7.85
2023-12-11T15:23:41.293Z,7.80
2023-12-11T15:26:07.928Z,7.79
2023-12-11T15:28:34.438Z,7.76
2023-12-11T15:31:12.931Z,7.78
2023-12-11T15:33:41.797Z,7.69
2023-12-11T15:36:15.377Z,7.67
2023-12-11T15:38:43.198Z,7.73
2023-12-11T15:41:10.517Z,7.83
2023-12-11T15:43:37.130Z,7.77
2023-12-11T15:46:10.944Z,7.75
2023-12-11T15:48:38.639Z,7.74
2023-12-11T15:51:18.993Z,7.72
2023-12-11T15:53:46.841Z,7.74
2023-12-11T15:56:16.577Z,7.72
2023-12-11T15:58:43.745Z,7.74
2023-12-11T16:01:11.472Z,7.78
2023-12-11T16:03:39.310Z,7.69
2023-12-11T16:06:06.218Z,7.73
2023-12-11T16:08:32.727Z,7.73
2023-12-11T16:10:59.446Z,7.80
2023-12-11T16:13:26.063Z,7.78
2023-12-11T16:15:52.687Z,7.70
2023-12-11T16:18:19.492Z,7.72
2023-12-11T16:20:46.230Z,7.72
2023-12-11T16:23:12.797Z,7.65
2023-12-11T16:25:50.545Z,7.67
2023-12-11T16:28:22.870Z,7.75
2023-12-11T16:30:49.810Z,7.65
2023-12-11T16:33:17.368Z,7.65
2023-12-11T16:35:43.993Z,7.61
2023-12-11T16:38:10.578Z,7.57
2023-12-11T16:40:37.083Z,7.65
2023-12-11T16:43:03.923Z,7.61
2023-12-11T16:45:30.460Z,7.59
2023-12-11T16:47:57.119Z,7.54
2023-12-11T16:50:24.729Z,7.54
2023-12-11T16:52:51.442Z,7.51
2023-12-11T16:55:18.413Z,7.57
2023-12-11T16:57:45.440Z,7.60
2023-12-11T17:00:12.636Z,7.69
2023-12-11T17:02:39.393Z,7.71
2023-12-11T17:05:07.181Z,7.74
2023-12-11T17:07:33.771Z,7.63
2023-12-11T17:10:00.566Z,7.49
2023-12-11T17:12:29.185Z,7.55
2023-12-11T17:14:57.525Z,7.42
2023-12-11T17:17:24.599Z,7.43
2023-12-11T17:19:51.509Z,7.29
2023-12-11T17:22:18.257Z,7.25
2023-12-11T17:24:44.948Z,7.20
2023-12-11T17:27:11.472Z,7.20
2023-12-11T17:29:39.368Z,7.17
2023-12-11T17:32:07.063Z,7.11
2023-12-11T17:34:34.453Z,7.10
2023-12-11T17:37:00.956Z,7.11
2023-12-11T17:39:27.527Z,7.10
2023-12-11T17:41:54.230Z,7.06
2023-12-11T17:44:21.082Z,7.01
2023-12-11T17:46:47.649Z,7.05
2023-12-11T17:49:14.388Z,7.19
2023-12-11T17:51:40.908Z,7.18
2023-12-11T17:54:07.548Z,7.23
2023-12-11T17:56:34.021Z,7.36
2023-12-11T17:59:00.414Z,7.33
2023-12-11T18:01:27.078Z,7.41
2023-12-11T18:03:54.122Z,7.45
2023-12-11T18:06:20.961Z,7.39
2023-12-11T18:08:47.729Z,7.38
2023-12-11T18:11:14.278Z,7.38
2023-12-11T18:13:41.054Z,7.40
2023-12-11T18:16:08.064Z,7.41
2023-12-11T18:18:35.379Z,7.38
2023-12-11T18:21:02.708Z,7.38
2023-12-11T18:23:29.386Z,7.38
2023-12-11T18:25:55.842Z,7.43
2023-12-11T18:28:23.147Z,7.45
2023-12-11T18:30:49.776Z,7.64
2023-12-11T18:33:16.751Z,7.42
2023-12-11T18:35:44.066Z,7.28
2023-12-11T18:38:11.110Z,7.30
2023-12-11T18:40:37.996Z,7.33
2023-12-11T18:43:04.570Z,7.27
2023-12-11T18:45:31.061Z,7.42
2023-12-11T18:47:58.721Z,7.33
2023-12-11T18:50:25.195Z,7.46
2023-12-11T18:52:54.009Z,7.41
2023-12-11T18:55:22.300Z,7.46
2023-12-11T18:57:49.010Z,7.38
2023-12-11T19:00:15.910Z,7.51
2023-12-11T19:02:43.409Z,7.51
2023-12-11T19:05:10.938Z,7.57
2023-12-11T19:07:38.713Z,7.55
2023-12-11T19:10:05.575Z,7.48
2023-12-11T19:12:32.046Z,7.49
2023-12-11T19:14:58.607Z,7.43
2023-12-11T19:17:25.217Z,7.48
2023-12-11T19:19:51.957Z,7.50
2023-12-11T19:22:18.397Z,7.49
2023-12-11T19:24:45.071Z,7.49
2023-12-11T19:27:11.549Z,7.45
2023-12-11T19:29:38.200Z,7.48
2023-12-11T19:32:05.626Z,7.46
2023-12-11T19:34:32.378Z,7.42
2023-12-11T19:37:00.870Z,7.39
2023-12-11T19:39:27.667Z,7.39
2023-12-11T19:41:54.516Z,7.38
2023-12-11T19:44:21.327Z,7.42
2023-12-11T19:46:48.022Z,7.45
2023-12-11T19:49:15.015Z,7.45
2023-12-11T19:51:43.936Z,7.57
2023-12-11T19:54:11.877Z,7.52
2023-12-11T19:56:38.465Z,7.64
2023-12-11T19:59:08.272Z,7.61
2023-12-11T20:01:34.958Z,7.49
2023-12-11T20:04:01.831Z,7.51
2023-12-11T20:06:29.336Z,7.56
2023-12-11T20:08:55.861Z,7.44
2023-12-11T20:11:22.498Z,7.39
2023-12-11T20:13:50.808Z,7.33
2023-12-11T20:16:18.280Z,7.32
2023-12-11T20:18:45.523Z,7.25
2023-12-11T20:21:12.188Z,7.19
2023-12-11T20:23:38.725Z,7.10
2023-12-11T20:26:06.526Z,7.07
2023-12-11T20:28:33.786Z,7.04
2023-12-11T20:31:00.422Z,6.95
2023-12-11T20:33:26.937Z,6.89
2023-12-11T20:35:56.146Z,6.86
2023-12-11T20:38:23.055Z,6.88
2023-12-11T20:40:49.693Z,6.89
2023-12-11T20:43:17.030Z,6.90
2023-12-11T20:45:45.684Z,6.98
2023-12-11T20:48:12.222Z,7.04
2023-12-11T20:50:38.914Z,7.04
2023-12-11T20:53:05.354Z,7.05
2023-12-11T20:55:32.536Z,7.02
2023-12-11T20:57:58.999Z,7.03
2023-12-11T21:00:25.595Z,7.07
2023-12-11T21:02:52.565Z,7.08
2023-12-11T21:05:19.307Z,7.07
2023-12-11T21:07:45.876Z,7.07
2023-12-11T21:10:12.621Z,7.02
2023-12-11T21:12:39.376Z,6.99
2023-12-11T21:15:06.577Z,6.96
2023-12-11T21:17:33.329Z,6.91
2023-12-11T21:20:00.458Z,6.89
2023-12-11T21:22:27.342Z,6.88
2023-12-11T21:24:53.957Z,6.89
2023-12-11T21:27:20.482Z,6.92
2023-12-11T21:29:47.096Z,6.91
2023-12-11T21:32:13.675Z,6.94
2023-12-11T21:34:43.718Z,6.97
2023-12-11T21:37:11.076Z,6.97
2023-12-11T21:39:37.710Z,6.89
2023-12-11T21:42:05.262Z,6.85
2023-12-11T21:44:32.216Z,6.80
2023-12-11T21:46:59.266Z,6.85
2023-12-11T21:49:26.112Z,6.90
2023-12-11T21:52:15.712Z,7.03
2023-12-11T21:54:42.301Z,7.03
2023-12-11T21:57:08.907Z,7.00
2023-12-11T21:59:42.494Z,6.99
2023-12-11T22:02:14.322Z,6.88
2023-12-11T22:04:40.818Z,6.74
2023-12-11T22:07:07.407Z,6.72
2023-12-11T22:09:33.840Z,6.64
2023-12-11T22:12:00.252Z,6.67
2023-12-11T22:14:26.875Z,6.81
2023-12-11T22:16:53.389Z,6.73
2023-12-11T22:19:20.013Z,6.69
2023-12-11T22:21:46.652Z,6.84
2023-12-11T22:24:14.675Z,6.95
2023-12-11T22:26:42.010Z,7.02
2023-12-11T22:29:08.668Z,7.00
2023-12-11T22:31:38.019Z,6.98
2023-12-11T22:34:04.634Z,7.05
2023-12-11T22:36:31.379Z,6.95
2023-12-11T22:38:57.948Z,6.98
2023-12-11T22:41:28.916Z,6.96
2023-12-11T22:43:55.582Z,7.02
2023-12-11T22:46:22.278Z,6.96
2023-12-11T22:48:48.938Z,6.99
2023-12-11T22:51:15.785Z,7.01
2023-12-11T22:53:42.220Z,7.07
2023-12-11T22:56:12.038Z,7.07
2023-12-11T22:58:38.513Z,7.12
2023-12-11T23:01:05.132Z,7.08
2023-12-11T23:03:31.634Z,7.16
2023-12-11T23:05:59.263Z,7.17
2023-12-11T23:08:27.396Z,7.17
2023-12-11T23:10:54.707Z,7.09
2023-12-11T23:13:21.173Z,7.08
2023-12-11T23:15:51.007Z,7.07
2023-12-11T23:18:17.510Z,7.09
2023-12-11T23:20:44.212Z,7.22
2023-12-11T23:23:11.938Z,7.17
2023-12-11T23:25:43.253Z,7.17
2023-12-11T23:28:16.545Z,7.24
2023-12-11T23:30:43.388Z,7.20
2023-12-11T23:33:10.087Z,7.20
2023-12-11T23:35:36.760Z,7.13
2023-12-11T23:38:03.215Z,7.14
2023-12-11T23:40:29.897Z,7.17
2023-12-11T23:42:56.367Z,7.20
2023-12-11T23:45:23.371Z,7.14
2023-12-11T23:47:49.922Z,7.37
2023-12-11T23:50:16.639Z,7.25
2023-12-11T23:52:43.085Z,7.22
2023-12-11T23:55:09.813Z,7.24
2023-12-11T23:57:36.613Z,7.30
